sensor_id;sensor_type;location;lat;lon;timestamp;pressure;altitude;pressure_sealevel;temperature;humidity
73341;BME280;61578;52.002;5.468;2023-05-02T00:00:12;101896.50;;;11.83;80.25
73341;BME280;61578;52.002;5.468;2023-05-02T00:00:43;101909.72;;;11.85;80.02
73341;BME280;61578;52.002;5.468;2023-05-02T00:01:15;101955.25;;;12.13;79.79
73341;BME280;61578;52.002;5.468;2023-05-02T00:01:46;101959.81;;;12.11;79.99
73341;BME280;61578;52.002;5.468;2023-05-02T00:02:17;101957.22;;;12.09;80.23
73341;BME280;61578;52.002;5.468;2023-05-02T00:02:48;101953.13;;;12.02;80.02
73341;BME280;61578;52.002;5.468;2023-05-02T00:03:19;101959.09;;;12.07;80.16
73341;BME280;61578;52.002;5.468;2023-05-02T00:03:52;101965.28;;;12.08;80.05
73341;BME280;61578;52.002;5.468;2023-05-02T00:04:23;101956.44;;;12.07;80.33
73341;BME280;61578;52.002;5.468;2023-05-02T00:04:57;101950.31;;;12.05;80.39
73341;BME280;61578;52.002;5.468;2023-05-02T00:05:30;101959.03;;;12.09;80.73
73341;BME280;61578;52.002;5.468;2023-05-02T00:06:01;101946.81;;;12.05;80.60
73341;BME280;61578;52.002;5.468;2023-05-02T00:06:32;101945.88;;;12.06;80.35
73341;BME280;61578;52.002;5.468;2023-05-02T00:07:03;101957.97;;;12.11;80.59
73341;BME280;61578;52.002;5.468;2023-05-02T00:07:34;101959.69;;;12.12;80.68
73341;BME280;61578;52.002;5.468;2023-05-02T00:08:08;101929.44;;;11.98;80.10
73341;BME280;61578;52.002;5.468;2023-05-02T00:08:39;101964.00;;;12.15;80.41
73341;BME280;61578;52.002;5.468;2023-05-02T00:09:09;101964.00;;;12.15;80.46
73341;BME280;61578;52.002;5.468;2023-05-02T00:09:40;101963.16;;;12.14;80.22
73341;BME280;61578;52.002;5.468;2023-05-02T00:10:11;101955.94;;;12.16;80.79
73341;BME280;61578;52.002;5.468;2023-05-02T00:10:42;101958.53;;;12.18;80.34
73341;BME280;61578;52.002;5.468;2023-05-02T00:11:13;101961.28;;;12.16;80.48
73341;BME280;61578;52.002;5.468;2023-05-02T00:11:43;101906.75;;;11.91;80.04
73341;BME280;61578;52.002;5.468;2023-05-02T00:12:17;101944.50;;;12.14;79.75
73341;BME280;61578;52.002;5.468;2023-05-02T00:12:50;101959.22;;;12.22;80.22
73341;BME280;61578;52.002;5.468;2023-05-02T00:13:21;101954.94;;;12.19;79.93
73341;BME280;61578;52.002;5.468;2023-05-02T00:13:52;101961.03;;;12.21;79.77
73341;BME280;61578;52.002;5.468;2023-05-02T00:14:23;101939.34;;;12.11;80.34
73341;BME280;61578;52.002;5.468;2023-05-02T00:14:54;101952.88;;;12.24;80.23
73341;BME280;61578;52.002;5.468;2023-05-02T00:15:25;101965.31;;;12.24;80.08
73341;BME280;61578;52.002;5.468;2023-05-02T00:15:59;101957.25;;;12.25;79.98
73341;BME280;61578;52.002;5.468;2023-05-02T00:16:29;101960.06;;;12.22;79.87
73341;BME280;61578;52.002;5.468;2023-05-02T00:17:00;101943.41;;;12.19;79.83
73341;BME280;61578;52.002;5.468;2023-05-02T00:17:31;101958.91;;;12.28;79.42
73341;BME280;61578;52.002;5.468;2023-05-02T00:18:04;101954.44;;;12.28;79.78
73341;BME280;61578;52.002;5.468;2023-05-02T00:18:35;101956.16;;;12.29;80.21
73341;BME280;61578;52.002;5.468;2023-05-02T00:19:06;101916.59;;;12.06;79.64
73341;BME280;61578;52.002;5.468;2023-05-02T00:19:39;101949.19;;;12.27;79.95
73341;BME280;61578;52.002;5.468;2023-05-02T00:20:11;101955.38;;;12.27;79.52
73341;BME280;61578;52.002;5.468;2023-05-02T00:20:42;101954.44;;;12.28;79.70
73341;BME280;61578;52.002;5.468;2023-05-02T00:21:13;101949.28;;;12.25;79.63
73341;BME280;61578;52.002;5.468;2023-05-02T00:21:46;101950.66;;;12.32;79.90
73341;BME280;61578;52.002;5.468;2023-05-02T00:22:18;101949.03;;;12.30;79.77
73341;BME280;61578;52.002;5.468;2023-05-02T00:22:49;101951.50;;;12.33;79.78
73341;BME280;61578;52.002;5.468;2023-05-02T00:23:20;101963.03;;;12.33;79.91
73341;BME280;61578;52.002;5.468;2023-05-02T00:23:50;101941.28;;;12.25;79.54
73341;BME280;61578;52.002;5.468;2023-05-02T00:24:21;101953.25;;;12.34;79.43
73341;BME280;61578;52.002;5.468;2023-05-02T00:24:58;101951.34;;;12.36;79.21
73341;BME280;61578;52.002;5.468;2023-05-02T00:25:28;101948.19;;;12.29;79.24
73341;BME280;61578;52.002;5.468;2023-05-02T00:25:59;101955.97;;;12.32;79.71
73341;BME280;61578;52.002;5.468;2023-05-02T00:26:30;101963.03;;;12.33;79.88
73341;BME280;61578;52.002;5.468;2023-05-02T00:27:01;101957.63;;;12.35;79.62
73341;BME280;61578;52.002;5.468;2023-05-02T00:27:32;101959.50;;;12.33;79.09
73341;BME280;61578;52.002;5.468;2023-05-02T00:28:03;101954.97;;;12.35;79.22
73341;BME280;61578;52.002;5.468;2023-05-02T00:28:36;101931.91;;;12.18;79.47
73341;BME280;61578;52.002;5.468;2023-05-02T00:29:07;101958.50;;;12.35;79.66
73341;BME280;61578;52.002;5.468;2023-05-02T00:29:37;101956.59;;;12.37;79.95
73341;BME280;61578;52.002;5.468;2023-05-02T00:30:08;101954.88;;;12.36;79.66
73341;BME280;61578;52.002;5.468;2023-05-02T00:30:46;101907.50;;;12.10;79.09
73341;BME280;61578;52.002;5.468;2023-05-02T00:31:16;101965.38;;;12.39;79.40
73341;BME280;61578;52.002;5.468;2023-05-02T00:31:47;101919.09;;;12.09;79.67
73341;BME280;61578;52.002;5.468;2023-05-02T00:32:18;101957.47;;;12.38;79.29
73341;BME280;61578;52.002;5.468;2023-05-02T00:32:51;101949.63;;;12.35;79.54
73341;BME280;61578;52.002;5.468;2023-05-02T00:33:26;101958.41;;;12.37;78.94
73341;BME280;61578;52.002;5.468;2023-05-02T00:34:00;101966.31;;;12.38;79.30
73341;BME280;61578;52.002;5.468;2023-05-02T00:34:32;101960.13;;;12.38;79.32
73341;BME280;61578;52.002;5.468;2023-05-02T00:35:06;101914.63;;;12.09;79.07
73341;BME280;61578;52.002;5.468;2023-05-02T00:35:37;101962.88;;;12.36;79.35
73341;BME280;61578;52.002;5.468;2023-05-02T00:36:18;101965.47;;;12.38;79.21
73341;BME280;61578;52.002;5.468;2023-05-02T00:36:52;101967.19;;;12.39;79.71
73341;BME280;61578;52.002;5.468;2023-05-02T00:37:27;101963.66;;;12.38;79.62
73341;BME280;61578;52.002;5.468;2023-05-02T00:37:58;101971.66;;;12.38;79.17
73341;BME280;61578;52.002;5.468;2023-05-02T00:38:29;101958.56;;;12.34;79.38
73341;BME280;61578;52.002;5.468;2023-05-02T00:39:00;101967.25;;;12.37;79.42
73341;BME280;61578;52.002;5.468;2023-05-02T00:39:33;101965.38;;;12.39;79.48
73341;BME280;61578;52.002;5.468;2023-05-02T00:40:06;101970.72;;;12.39;79.62
73341;BME280;61578;52.002;5.468;2023-05-02T00:40:49;101960.91;;;12.40;79.87
73341;BME280;61578;52.002;5.468;2023-05-02T00:41:21;101928.31;;;12.19;79.11
73341;BME280;61578;52.002;5.468;2023-05-02T00:41:57;101963.41;;;12.43;78.93
73341;BME280;61578;52.002;5.468;2023-05-02T00:42:28;101921.25;;;12.18;79.07
73341;BME280;61578;52.002;5.468;2023-05-02T00:43:03;101959.28;;;12.37;79.25
73341;BME280;61578;52.002;5.468;2023-05-02T00:43:34;101966.16;;;12.41;79.36
73341;BME280;61578;52.002;5.468;2023-05-02T00:44:08;101974.16;;;12.41;79.38
73341;BME280;61578;52.002;5.468;2023-05-02T00:44:39;101969.66;;;12.42;79.35
73341;BME280;61578;52.002;5.468;2023-05-02T00:45:09;101966.91;;;12.43;79.08
73341;BME280;61578;52.002;5.468;2023-05-02T00:45:43;101953.16;;;12.35;79.17
73341;BME280;61578;52.002;5.468;2023-05-02T00:46:16;101953.16;;;12.35;79.55
73341;BME280;61578;52.002;5.468;2023-05-02T00:46:49;101967.97;;;12.41;79.57
73341;BME280;61578;52.002;5.468;2023-05-02T00:47:22;101953.09;;;12.37;79.54
73341;BME280;61578;52.002;5.468;2023-05-02T00:47:53;101962.66;;;12.41;79.33
73341;BME280;61578;52.002;5.468;2023-05-02T00:48:24;101956.53;;;12.39;79.42
73341;BME280;61578;52.002;5.468;2023-05-02T00:48:59;101956.34;;;12.42;79.35
73341;BME280;61578;52.002;5.468;2023-05-02T00:49:31;101953.69;;;12.42;79.43
73341;BME280;61578;52.002;5.468;2023-05-02T00:50:01;101965.31;;;12.41;79.26
73341;BME280;61578;52.002;5.468;2023-05-02T00:50:41;101959.13;;;12.40;79.22
73341;BME280;61578;52.002;5.468;2023-05-02T00:51:12;101954.09;;;12.34;79.22
73341;BME280;61578;52.002;5.468;2023-05-02T00:51:43;101962.78;;;12.38;79.20
73341;BME280;61578;52.002;5.468;2023-05-02T00:52:14;101958.25;;;12.40;79.30
73341;BME280;61578;52.002;5.468;2023-05-02T00:52:46;101955.66;;;12.38;79.66
73341;BME280;61578;52.002;5.468;2023-05-02T00:53:17;101957.31;;;12.41;79.44
73341;BME280;61578;52.002;5.468;2023-05-02T00:53:48;101969.06;;;12.37;79.56
73341;BME280;61578;52.002;5.468;2023-05-02T00:54:19;101958.19;;;12.41;79.05
73341;BME280;61578;52.002;5.468;2023-05-02T00:54:50;101964.25;;;12.43;79.51
73341;BME280;61578;52.002;5.468;2023-05-02T00:55:21;101963.59;;;12.40;79.10
73341;BME280;61578;52.002;5.468;2023-05-02T00:55:57;101952.06;;;12.39;79.15
73341;BME280;61578;52.002;5.468;2023-05-02T00:56:28;101942.78;;;12.31;79.18
73341;BME280;61578;52.002;5.468;2023-05-02T00:56:59;101963.31;;;12.44;79.22
73341;BME280;61578;52.002;5.468;2023-05-02T00:57:29;101904.38;;;12.02;79.08
73341;BME280;61578;52.002;5.468;2023-05-02T00:58:04;101916.00;;;12.16;79.42
73341;BME280;61578;52.002;5.468;2023-05-02T00:58:39;101951.34;;;12.36;79.23
73341;BME280;61578;52.002;5.468;2023-05-02T00:59:11;101961.50;;;12.45;79.05
73341;BME280;61578;52.002;5.468;2023-05-02T00:59:45;101967.78;;;12.44;79.29
73341;BME280;61578;52.002;5.468;2023-05-02T01:00:19;101957.31;;;12.41;79.26
73341;BME280;61578;52.002;5.468;2023-05-02T01:02:03;101959.00;;;12.42;79.41
73341;BME280;61578;52.002;5.468;2023-05-02T01:02:50;101967.69;;;12.45;78.84
73341;BME280;61578;52.002;5.468;2023-05-02T01:03:45;101963.50;;;12.41;79.54
73341;BME280;61578;52.002;5.468;2023-05-02T01:05:26;101977.50;;;12.45;79.30
73341;BME280;61578;52.002;5.468;2023-05-02T01:06:23;101969.44;;;12.46;79.29
73341;BME280;61578;52.002;5.468;2023-05-02T01:08:12;101927.19;;;12.23;78.74
73341;BME280;61578;52.002;5.468;2023-05-02T01:09:45;101933.44;;;12.22;79.08
73341;BME280;61578;52.002;5.468;2023-05-02T01:10:24;101968.66;;;12.44;79.64
73341;BME280;61578;52.002;5.468;2023-05-02T01:11:32;101959.97;;;12.41;79.73
73341;BME280;61578;52.002;5.468;2023-05-02T01:12:17;101965.91;;;12.46;78.94
73341;BME280;61578;52.002;5.468;2023-05-02T01:13:16;101971.31;;;12.44;79.28
73341;BME280;61578;52.002;5.468;2023-05-02T01:13:55;101970.44;;;12.44;79.74
73341;BME280;61578;52.002;5.468;2023-05-02T01:14:41;101986.44;;;12.44;79.74
73341;BME280;61578;52.002;5.468;2023-05-02T01:15:19;101975.78;;;12.44;79.41
73341;BME280;61578;52.002;5.468;2023-05-02T01:15:55;101972.16;;;12.45;79.64
73341;BME280;61578;52.002;5.468;2023-05-02T01:16:30;101972.16;;;12.45;79.82
73341;BME280;61578;52.002;5.468;2023-05-02T01:17:06;101976.63;;;12.44;79.74
73341;BME280;61578;52.002;5.468;2023-05-02T01:17:43;101980.25;;;12.43;79.32
73341;BME280;61578;52.002;5.468;2023-05-02T01:18:24;101975.78;;;12.44;79.91
73341;BME280;61578;52.002;5.468;2023-05-02T01:19:03;101980.94;;;12.47;80.00
73341;BME280;61578;52.002;5.468;2023-05-02T01:19:42;101972.31;;;12.42;79.72
73341;BME280;61578;52.002;5.468;2023-05-02T01:20:23;101940.56;;;12.22;79.56
73341;BME280;61578;52.002;5.468;2023-05-02T01:21:00;101962.47;;;12.44;79.51
73341;BME280;61578;52.002;5.468;2023-05-02T01:21:37;101971.50;;;12.41;79.27
73341;BME280;61578;52.002;5.468;2023-05-02T01:22:11;101977.41;;;12.46;79.13
73341;BME280;61578;52.002;5.468;2023-05-02T01:22:46;101973.03;;;12.45;79.49
73341;BME280;61578;52.002;5.468;2023-05-02T01:24:25;101972.50;;;12.39;79.67
73341;BME280;61578;52.002;5.468;2023-05-02T01:26:18;101982.38;;;12.37;79.93
73341;BME280;61578;52.002;5.468;2023-05-02T01:29:17;101985.91;;;12.37;80.01
73341;BME280;61578;52.002;5.468;2023-05-02T01:29:52;101984.97;;;12.38;80.01
73341;BME280;61578;52.002;5.468;2023-05-02T01:30:27;101985.03;;;12.37;80.16
73341;BME280;61578;52.002;5.468;2023-05-02T01:31:05;101987.63;;;12.38;80.13
73341;BME280;61578;52.002;5.468;2023-05-02T01:31:40;101983.47;;;12.33;79.78
73341;BME280;61578;52.002;5.468;2023-05-02T01:32:15;101987.78;;;12.35;80.58
73341;BME280;61578;52.002;5.468;2023-05-02T01:32:51;101985.03;;;12.37;80.12
73341;BME280;61578;52.002;5.468;2023-05-02T01:33:27;101989.44;;;12.38;81.00
73341;BME280;61578;52.002;5.468;2023-05-02T01:34:09;101989.28;;;12.41;80.68
73341;BME280;61578;52.002;5.468;2023-05-02T01:34:43;101998.28;;;12.38;80.73
73341;BME280;61578;52.002;5.468;2023-05-02T01:35:19;101987.63;;;12.38;80.65
73341;BME280;61578;52.002;5.468;2023-05-02T01:35:52;101980.66;;;12.36;80.62
73341;BME280;61578;52.002;5.468;2023-05-02T01:36:29;101985.75;;;12.40;80.43
73341;BME280;61578;52.002;5.468;2023-05-02T01:37:04;101995.47;;;12.41;80.49
73341;BME280;61578;52.002;5.468;2023-05-02T01:37:39;101987.47;;;12.41;80.96
73341;BME280;61578;52.002;5.468;2023-05-02T01:38:15;101985.75;;;12.40;80.48
73341;BME280;61578;52.002;5.468;2023-05-02T01:38:50;101990.91;;;12.43;80.62
73341;BME280;61578;52.002;5.468;2023-05-02T01:39:24;101984.09;;;12.38;80.57
73341;BME280;61578;52.002;5.468;2023-05-02T01:39:58;101990.13;;;12.41;80.89
73341;BME280;61578;52.002;5.468;2023-05-02T01:40:33;101987.63;;;12.38;80.84
73341;BME280;61578;52.002;5.468;2023-05-02T01:41:08;102001.63;;;12.42;80.45
73341;BME280;61578;52.002;5.468;2023-05-02T01:41:42;101990.97;;;12.42;81.17
73341;BME280;61578;52.002;5.468;2023-05-02T01:42:18;101987.72;;;12.37;81.25
73341;BME280;61578;52.002;5.468;2023-05-02T01:42:53;101984.97;;;12.38;81.06
73341;BME280;61578;52.002;5.468;2023-05-02T01:43:36;101996.28;;;12.42;81.24
73341;BME280;61578;52.002;5.468;2023-05-02T01:44:10;101996.28;;;12.42;81.13
73341;BME280;61578;52.002;5.468;2023-05-02T01:44:44;101993.63;;;12.42;80.87
73341;BME280;61578;52.002;5.468;2023-05-02T01:45:18;102010.59;;;12.41;81.33
73341;BME280;61578;52.002;5.468;2023-05-02T01:45:53;101983.66;;;12.30;81.17
73341;BME280;61578;52.002;5.468;2023-05-02T01:46:30;102001.81;;;12.39;81.20
73341;BME280;61578;52.002;5.468;2023-05-02T01:47:04;101985.19;;;12.34;81.51
73341;BME280;61578;52.002;5.468;2023-05-02T01:47:40;102003.69;;;12.37;81.24
73341;BME280;61578;52.002;5.468;2023-05-02T01:48:18;102007.06;;;12.40;81.72
73341;BME280;61578;52.002;5.468;2023-05-02T01:48:51;102018.56;;;12.41;81.52
73341;BME280;61578;52.002;5.468;2023-05-02T01:49:25;102002.91;;;12.35;81.35
73341;BME280;61578;52.002;5.468;2023-05-02T01:50:00;102008.00;;;12.39;81.38
73341;BME280;61578;52.002;5.468;2023-05-02T01:50:36;102014.19;;;12.40;82.05
73341;BME280;61578;52.002;5.468;2023-05-02T01:51:14;102008.00;;;12.39;81.92
73341;BME280;61578;52.002;5.468;2023-05-02T01:51:52;101971.13;;;12.14;81.38
73341;BME280;61578;52.002;5.468;2023-05-02T01:52:25;102010.75;;;12.38;81.67
73341;BME280;61578;52.002;5.468;2023-05-02T01:52:57;102016.16;;;12.36;81.42
73341;BME280;61578;52.002;5.468;2023-05-02T01:53:30;102003.06;;;12.32;81.74
73341;BME280;61578;52.002;5.468;2023-05-02T01:54:08;102011.16;;;12.30;80.96
73341;BME280;61578;52.002;5.468;2023-05-02T01:54:42;102003.66;;;12.21;81.23
73341;BME280;61578;52.002;5.468;2023-05-02T01:55:16;102015.75;;;12.27;81.56
73341;BME280;61578;52.002;5.468;2023-05-02T01:55:48;102014.97;;;12.25;81.62
73341;BME280;61578;52.002;5.468;2023-05-02T01:56:23;102015.84;;;12.25;81.07
73341;BME280;61578;52.002;5.468;2023-05-02T01:57:00;101936.75;;;11.77;81.02
73341;BME280;61578;52.002;5.468;2023-05-02T01:57:39;102016.09;;;12.21;81.10
73341;BME280;61578;52.002;5.468;2023-05-02T01:58:17;102011.53;;;12.23;80.86
73341;BME280;61578;52.002;5.468;2023-05-02T01:58:53;102012.47;;;12.22;80.89
73341;BME280;61578;52.002;5.468;2023-05-02T01:59:29;102014.38;;;12.20;81.48
73341;BME280;61578;52.002;5.468;2023-05-02T02:00:06;102005.66;;;12.16;81.12
73341;BME280;61578;52.002;5.468;2023-05-02T02:00:45;102019.69;;;12.20;80.71
73341;BME280;61578;52.002;5.468;2023-05-02T02:01:17;102019.84;;;12.16;80.60
73341;BME280;61578;52.002;5.468;2023-05-02T02:01:50;102036.75;;;12.15;80.40
73341;BME280;61578;52.002;5.468;2023-05-02T02:02:29;102018.38;;;12.11;80.21
73341;BME280;61578;52.002;5.468;2023-05-02T02:03:06;102026.25;;;12.12;79.83
73341;BME280;61578;52.002;5.468;2023-05-02T02:03:40;102020.06;;;12.12;80.12
73341;BME280;61578;52.002;5.468;2023-05-02T02:04:14;102026.44;;;12.09;79.92
73341;BME280;61578;52.002;5.468;2023-05-02T02:04:48;102030.72;;;12.12;79.89
73341;BME280;61578;52.002;5.468;2023-05-02T02:05:23;102031.75;;;12.09;79.66
73341;BME280;61578;52.002;5.468;2023-05-02T02:05:58;102007.63;;;11.95;79.25
73341;BME280;61578;52.002;5.468;2023-05-02T02:06:33;102034.56;;;12.06;79.66
73341;BME280;61578;52.002;5.468;2023-05-02T02:07:07;101986.50;;;11.75;79.47
73341;BME280;61578;52.002;5.468;2023-05-02T02:07:44;101989.09;;;11.76;79.48
73341;BME280;61578;52.002;5.468;2023-05-02T02:08:21;102032.06;;;12.03;79.70
73341;BME280;61578;52.002;5.468;2023-05-02T02:08:53;102038.31;;;12.02;79.68
73341;BME280;61578;52.002;5.468;2023-05-02T02:09:24;102039.25;;;12.01;79.73
73341;BME280;61578;52.002;5.468;2023-05-02T02:09:55;102045.69;;;11.97;79.70
73341;BME280;61578;52.002;5.468;2023-05-02T02:10:30;102040.44;;;11.96;80.27
73341;BME280;61578;52.002;5.468;2023-05-02T02:11:11;102027.47;;;11.90;80.00
73341;BME280;61578;52.002;5.468;2023-05-02T02:12:07;102039.72;;;11.92;79.57
73341;BME280;61578;52.002;5.468;2023-05-02T02:13:16;102045.91;;;11.93;79.58
73341;BME280;61578;52.002;5.468;2023-05-02T02:13:49;102047.63;;;11.94;79.55
73341;BME280;61578;52.002;5.468;2023-05-02T02:14:33;102036.31;;;11.90;79.74
73341;BME280;61578;52.002;5.468;2023-05-02T02:15:52;102035.72;;;11.84;79.43
73341;BME280;61578;52.002;5.468;2023-05-02T02:16:30;102035.59;;;11.87;79.74
73341;BME280;61578;52.002;5.468;2023-05-02T02:17:12;102049.81;;;11.86;79.55
73341;BME280;61578;52.002;5.468;2023-05-02T02:17:48;102034.72;;;11.86;79.54
73341;BME280;61578;52.002;5.468;2023-05-02T02:18:30;102043.56;;;11.87;79.74
73341;BME280;61578;52.002;5.468;2023-05-02T02:19:07;102045.28;;;11.88;79.42
73341;BME280;61578;52.002;5.468;2023-05-02T02:19:41;102051.47;;;11.88;79.35
73341;BME280;61578;52.002;5.468;2023-05-02T02:20:14;102039.91;;;11.89;78.70
73341;BME280;61578;52.002;5.468;2023-05-02T02:20:48;102044.38;;;11.89;78.99
73341;BME280;61578;52.002;5.468;2023-05-02T02:21:22;102043.44;;;11.90;79.03
73341;BME280;61578;52.002;5.468;2023-05-02T02:21:57;102033.16;;;11.82;79.44
73341;BME280;61578;52.002;5.468;2023-05-02T02:22:36;102039.25;;;11.84;79.72
73341;BME280;61578;52.002;5.468;2023-05-02T02:23:12;102046.16;;;11.88;79.21
73341;BME280;61578;52.002;5.468;2023-05-02T02:23:52;102044.56;;;11.84;79.63
73341;BME280;61578;52.002;5.468;2023-05-02T02:24:26;102046.09;;;11.90;78.72
73341;BME280;61578;52.002;5.468;2023-05-02T02:24:58;102049.63;;;11.90;79.19
73341;BME280;61578;52.002;5.468;2023-05-02T02:25:33;102038.19;;;11.88;79.09
73341;BME280;61578;52.002;5.468;2023-05-02T02:26:09;102041.84;;;11.86;79.25
73341;BME280;61578;52.002;5.468;2023-05-02T02:26:41;102045.38;;;11.86;79.09
73341;BME280;61578;52.002;5.468;2023-05-02T02:27:13;102056.00;;;11.86;79.48
73341;BME280;61578;52.002;5.468;2023-05-02T02:27:47;102045.38;;;11.86;79.48
73341;BME280;61578;52.002;5.468;2023-05-02T02:28:18;102046.22;;;11.87;79.32
73341;BME280;61578;52.002;5.468;2023-05-02T02:28:49;102046.31;;;11.85;79.27
73341;BME280;61578;52.002;5.468;2023-05-02T02:29:20;102041.13;;;11.82;79.43
73341;BME280;61578;52.002;5.468;2023-05-02T02:29:51;102050.75;;;11.85;79.46
73341;BME280;61578;52.002;5.468;2023-05-02T02:30:21;102050.84;;;11.83;79.11
73341;BME280;61578;52.002;5.468;2023-05-02T02:30:52;102045.84;;;11.77;79.35
73341;BME280;61578;52.002;5.468;2023-05-02T02:31:29;102047.38;;;11.81;79.38
73341;BME280;61578;52.002;5.468;2023-05-02T02:32:04;102050.91;;;11.82;79.21
73341;BME280;61578;52.002;5.468;2023-05-02T02:32:41;102056.16;;;11.83;79.22
73341;BME280;61578;52.002;5.468;2023-05-02T02:33:12;102043.72;;;11.84;79.24
73341;BME280;61578;52.002;5.468;2023-05-02T02:33:43;101998.97;;;11.56;79.64
73341;BME280;61578;52.002;5.468;2023-05-02T02:34:13;102048.25;;;11.82;78.98
73341;BME280;61578;52.002;5.468;2023-05-02T02:34:47;102049.91;;;11.84;79.39
73341;BME280;61578;52.002;5.468;2023-05-02T02:35:18;102051.69;;;11.84;79.36
73341;BME280;61578;52.002;5.468;2023-05-02T02:35:59;102056.22;;;11.82;79.23
73341;BME280;61578;52.002;5.468;2023-05-02T02:36:51;102056.41;;;11.78;78.98
73341;BME280;61578;52.002;5.468;2023-05-02T02:38:19;102064.47;;;11.77;79.40
73341;BME280;61578;52.002;5.468;2023-05-02T02:40:28;102073.47;;;11.73;78.82
73341;BME280;61578;52.002;5.468;2023-05-02T02:41:23;102071.84;;;11.70;79.14
73341;BME280;61578;52.002;5.468;2023-05-02T02:43:35;102072.69;;;11.71;79.38
73341;BME280;61578;52.002;5.468;2023-05-02T02:44:27;102057.09;;;11.63;78.84
73341;BME280;61578;52.002;5.468;2023-05-02T02:45:23;102077.69;;;11.78;79.17
73341;BME280;61578;52.002;5.468;2023-05-02T02:47:43;102077.69;;;11.78;78.63
73341;BME280;61578;52.002;5.468;2023-05-02T02:49:09;102080.34;;;11.78;78.72
73341;BME280;61578;52.002;5.468;2023-05-02T02:50:13;102078.72;;;11.74;79.13
73341;BME280;61578;52.002;5.468;2023-05-02T02:51:10;102086.69;;;11.76;78.62
73341;BME280;61578;52.002;5.468;2023-05-02T02:52:54;102085.00;;;11.73;78.80
73341;BME280;61578;52.002;5.468;2023-05-02T02:54:57;102082.63;;;11.67;78.83
73341;BME280;61578;52.002;5.468;2023-05-02T02:55:54;102085.91;;;11.72;78.42
73341;BME280;61578;52.002;5.468;2023-05-02T02:56:40;102086.00;;;11.71;78.35
73341;BME280;61578;52.002;5.468;2023-05-02T02:57:25;102086.00;;;11.71;77.92
73341;BME280;61578;52.002;5.468;2023-05-02T02:59:32;102094.06;;;11.69;77.46
73341;BME280;61578;52.002;5.468;2023-05-02T03:00:17;102086.16;;;11.68;77.85
73341;BME280;61578;52.002;5.468;2023-05-02T03:00:50;102081.63;;;11.70;77.86
73341;BME280;61578;52.002;5.468;2023-05-02T03:01:26;102086.38;;;11.63;76.89
73341;BME280;61578;52.002;5.468;2023-05-02T03:02:06;102087.97;;;11.67;77.62
73341;BME280;61578;52.002;5.468;2023-05-02T03:02:42;102083.63;;;11.65;76.74
73341;BME280;61578;52.002;5.468;2023-05-02T03:03:19;102084.56;;;11.64;77.42
73341;BME280;61578;52.002;5.468;2023-05-02T03:03:57;102097.75;;;11.67;76.87
73341;BME280;61578;52.002;5.468;2023-05-02T03:04:33;102047.44;;;11.43;76.86
73341;BME280;61578;52.002;5.468;2023-05-02T03:05:10;102072.38;;;11.60;77.44
73341;BME280;61578;52.002;5.468;2023-05-02T03:05:45;102086.31;;;11.65;77.44
73341;BME280;61578;52.002;5.468;2023-05-02T03:06:17;102096.09;;;11.64;76.87
73341;BME280;61578;52.002;5.468;2023-05-02T03:06:50;102089.91;;;11.64;76.63
73341;BME280;61578;52.002;5.468;2023-05-02T03:07:21;102095.22;;;11.64;76.64
73341;BME280;61578;52.002;5.468;2023-05-02T03:07:52;102057.28;;;11.41;76.96
73341;BME280;61578;52.002;5.468;2023-05-02T03:08:23;102000.25;;;11.11;76.03
73341;BME280;61578;52.002;5.468;2023-05-02T03:08:54;102089.16;;;11.60;76.07
73341;BME280;61578;52.002;5.468;2023-05-02T03:09:25;102094.50;;;11.60;77.35
73341;BME280;61578;52.002;5.468;2023-05-02T03:10:02;102101.72;;;11.58;76.73
73341;BME280;61578;52.002;5.468;2023-05-02T03:10:34;102090.22;;;11.58;76.76
73341;BME280;61578;52.002;5.468;2023-05-02T03:11:05;102093.72;;;11.58;76.65
73341;BME280;61578;52.002;5.468;2023-05-02T03:11:37;102062.06;;;11.35;76.53
73341;BME280;61578;52.002;5.468;2023-05-02T03:12:07;102097.31;;;11.57;76.70
73341;BME280;61578;52.002;5.468;2023-05-02T03:12:38;102063.84;;;11.34;75.77
73341;BME280;61578;52.002;5.468;2023-05-02T03:13:09;102094.72;;;11.56;76.00
73341;BME280;61578;52.002;5.468;2023-05-02T03:13:39;102096.53;;;11.55;76.28
73341;BME280;61578;52.002;5.468;2023-05-02T03:14:11;102099.19;;;11.55;76.67
73341;BME280;61578;52.002;5.468;2023-05-02T03:14:42;102057.03;;;11.29;76.49
73341;BME280;61578;52.002;5.468;2023-05-02T03:16:33;102101.06;;;11.53;75.82
73341;BME280;61578;52.002;5.468;2023-05-02T03:17:08;102099.41;;;11.51;76.38
73341;BME280;61578;52.002;5.468;2023-05-02T03:17:39;102090.94;;;11.42;75.81
73341;BME280;61578;52.002;5.468;2023-05-02T03:18:10;102100.06;;;11.56;75.96
73341;BME280;61578;52.002;5.468;2023-05-02T03:18:41;102106.31;;;11.55;75.46
73341;BME280;61578;52.002;5.468;2023-05-02T03:19:12;102068.38;;;11.32;75.72
73341;BME280;61578;52.002;5.468;2023-05-02T03:19:43;102075.34;;;11.35;75.54
73341;BME280;61578;52.002;5.468;2023-05-02T03:20:13;102111.00;;;11.50;75.55
73341;BME280;61578;52.002;5.468;2023-05-02T03:20:44;102113.66;;;11.50;75.94
73341;BME280;61578;52.002;5.468;2023-05-02T03:21:18;102105.88;;;11.45;75.59
73341;BME280;61578;52.002;5.468;2023-05-02T03:21:48;102106.75;;;11.46;75.58
73341;BME280;61578;52.002;5.468;2023-05-02T03:22:19;102106.88;;;11.42;75.77
73341;BME280;61578;52.002;5.468;2023-05-02T03:22:50;102106.88;;;11.42;75.87
73341;BME280;61578;52.002;5.468;2023-05-02T03:23:22;102102.78;;;11.35;76.14
73341;BME280;61578;52.002;5.468;2023-05-02T03:23:52;102114.22;;;11.37;75.54
73341;BME280;61578;52.002;5.468;2023-05-02T03:24:27;102110.47;;;11.41;75.76
73341;BME280;61578;52.002;5.468;2023-05-02T03:24:57;102115.84;;;11.40;75.82